Time;durP1;ratioP1;P1;durP2;ratioP2;P2;SDS_P1;SDS_P2;PMS_P1;PMS_P2;Temp;Humidity;BMP_temperature;BMP_pressure;BME280_temperature;BME280_humidity;BME280_pressure;Samples;Min_cycle;Max_cycle;Signal;HPM_P1;HPM_P2
2021/01/30 00:02:06;;;;;;;1.73;0.40;;;;;;;;;;5092113;28;20012;-58
2021/01/30 00:04:32;;;;;;;0.65;0.20;;;;;;;;;;5092391;28;20012;-57
2021/01/30 00:06:57;;;;;;;0.82;0.30;;;;;;;;;;5089755;28;20016;-57
2021/01/30 00:09:24;;;;;;;0.85;0.30;;;;;;;;;;5092366;28;20020;-58
2021/01/30 00:11:53;;;;;;;1.48;0.30;;;;;;;;;;5092071;28;20475;-56
2021/01/30 00:14:22;;;;;;;1.55;0.30;;;;;;;;;;5081174;28;20017;-57
2021/01/30 00:16:48;;;;;;;3.08;0.30;;;;;;;;;;5081619;28;20056;-57
2021/01/30 00:19:13;;;;;;;1.30;0.30;;;;;;;;;;5092505;28;20056;-57
2021/01/30 00:21:38;;;;;;;1.55;0.20;;;;;;;;;;5091683;28;20016;-57
2021/01/30 00:24:04;;;;;;;0.40;0.13;;;;;;;;;;5092220;28;20020;-58
2021/01/30 00:26:29;;;;;;;1.77;0.40;;;;;;;;;;5089467;28;20024;-58
2021/01/30 00:28:54;;;;;;;1.63;0.40;;;;;;;;;;5090322;28;20579;-57
2021/01/30 00:31:19;;;;;;;1.58;0.40;;;;;;;;;;5092196;28;20028;-57
2021/01/30 00:33:45;;;;;;;3.13;0.60;;;;;;;;;;5092100;28;20043;-55
2021/01/30 00:36:10;;;;;;;3.42;0.70;;;;;;;;;;5089290;28;20063;-58
2021/01/30 00:38:35;;;;;;;1.52;0.30;;;;;;;;;;5091992;28;20055;-58
2021/01/30 00:41:00;;;;;;;2.30;0.50;;;;;;;;;;5091572;28;20034;-56
2021/01/30 00:43:25;;;;;;;1.30;0.70;;;;;;;;;;5092786;28;20020;-54
2021/01/30 00:45:51;;;;;;;2.13;0.88;;;;;;;;;;5089442;28;20086;-57
2021/01/30 00:48:16;;;;;;;0.50;0.20;;;;;;;;;;5091641;28;20020;-56
2021/01/30 00:50:42;;;;;;;2.95;0.80;;;;;;;;;;5091706;28;20020;-57
2021/01/30 00:53:07;;;;;;;2.65;0.73;;;;;;;;;;5091981;28;20459;-57
2021/01/30 00:55:32;;;;;;;2.72;1.23;;;;;;;;;;5085039;28;20021;-57
2021/01/30 00:57:57;;;;;;;1.33;0.55;;;;;;;;;;5095544;28;20031;-56
2021/01/30 01:00:24;;;;;;;3.17;0.75;;;;;;;;;;5095715;28;20478;-55
2021/01/30 01:02:50;;;;;;;3.65;0.70;;;;;;;;;;5095781;28;20012;-57
2021/01/30 01:05:16;;;;;;;1.25;0.30;;;;;;;;;;5093217;28;20394;-58
2021/01/30 01:07:42;;;;;;;0.65;0.25;;;;;;;;;;5095836;28;20020;-54
2021/01/30 01:10:08;;;;;;;2.10;0.70;;;;;;;;;;5092748;28;20027;-58
2021/01/30 01:12:33;;;;;;;0.60;0.20;;;;;;;;;;5095706;28;20559;-58
2021/01/30 01:14:58;;;;;;;0.55;0.30;;;;;;;;;;5093962;28;20027;-57
2021/01/30 01:17:23;;;;;;;2.90;0.50;;;;;;;;;;5094577;28;20016;-56
2021/01/30 01:19:48;;;;;;;1.23;0.60;;;;;;;;;;5095401;28;20019;-58
2021/01/30 01:22:14;;;;;;;1.75;0.20;;;;;;;;;;5095779;28;20046;-58
2021/01/30 01:24:39;;;;;;;1.70;0.32;;;;;;;;;;5094217;28;20028;-57
2021/01/30 01:27:04;;;;;;;2.00;0.20;;;;;;;;;;5092522;28;20020;-56
2021/01/30 01:29:29;;;;;;;1.55;0.63;;;;;;;;;;5095478;28;20491;-57
2021/01/30 01:31:56;;;;;;;2.03;0.70;;;;;;;;;;5094993;28;20060;-57
2021/01/30 01:34:22;;;;;;;1.85;0.30;;;;;;;;;;5095708;28;20024;-54
2021/01/30 01:36:59;;;;;;;0.80;0.40;;;;;;;;;;5092533;28;20028;-56
2021/01/30 01:39:25;;;;;;;1.08;0.35;;;;;;;;;;5092951;28;20032;-56
2021/01/30 01:41:53;;;;;;;1.00;0.22;;;;;;;;;;5093346;28;20609;-56
2021/01/30 01:44:18;;;;;;;0.93;0.30;;;;;;;;;;5094868;28;20039;-55
2021/01/30 01:46:44;;;;;;;1.65;0.52;;;;;;;;;;5092158;28;20020;-56
2021/01/30 01:49:15;;;;;;;0.80;0.30;;;;;;;;;;5095063;28;20481;-56
2021/01/30 01:51:43;;;;;;;0.90;0.60;;;;;;;;;;5095234;28;20042;-53
2021/01/30 01:54:14;;;;;;;0.90;0.60;;;;;;;;;;5095050;28;20436;-52
2021/01/30 01:56:39;;;;;;;1.73;0.40;;;;;;;;;;5092113;28;20494;-58
2021/01/30 01:59:10;;;;;;;0.70;0.30;;;;;;;;;;5094651;28;20028;-58
2021/01/30 02:01:36;;;;;;;1.88;0.30;;;;;;;;;;5089114;28;20453;-54
2021/01/30 02:04:04;;;;;;;1.05;0.40;;;;;;;;;;5094704;28;20368;-55
2021/01/30 02:06:29;;;;;;;0.85;0.20;;;;;;;;;;5091609;28;20020;-57
2021/01/30 02:08:54;;;;;;;0.45;0.15;;;;;;;;;;5093350;28;20390;-56
2021/01/30 02:11:19;;;;;;;1.15;0.60;;;;;;;;;;5092479;28;20027;-57
2021/01/30 02:13:45;;;;;;;0.75;0.32;;;;;;;;;;5092465;28;20028;-57
2021/01/30 02:16:28;;;;;;;2.15;0.50;;;;;;;;;;5092006;28;20471;-57
2021/01/30 02:19:12;;;;;;;0.60;0.45;;;;;;;;;;5074408;28;20115;-55
2021/01/30 02:21:52;;;;;;;0.98;0.20;;;;;;;;;;5074531;28;20016;-56
2021/01/30 02:24:17;;;;;;;2.35;0.80;;;;;;;;;;5074101;28;20017;-58
2021/01/30 02:27:09;;;;;;;1.75;0.73;;;;;;;;;;5082464;28;20012;-57
2021/01/30 02:29:55;;;;;;;2.17;0.55;;;;;;;;;;5090240;28;20048;-54
2021/01/30 02:32:21;;;;;;;0.40;0.30;;;;;;;;;;5094301;28;20027;-57
2021/01/30 02:34:49;;;;;;;0.70;0.52;;;;;;;;;;5093741;28;20360;-54
2021/01/30 02:37:25;;;;;;;2.10;0.50;;;;;;;;;;5092037;28;20454;-55
2021/01/30 02:39:57;;;;;;;2.58;0.70;;;;;;;;;;5093823;28;20024;-57
2021/01/30 02:42:48;;;;;;;2.03;0.50;;;;;;;;;;5094136;28;20387;-54
2021/01/30 02:45:25;;;;;;;1.65;0.60;;;;;;;;;;5059964;28;20304;-51
2021/01/30 02:48:05;;;;;;;2.55;0.90;;;;;;;;;;5093466;28;20103;-54
2021/01/30 02:50:44;;;;;;;1.15;0.28;;;;;;;;;;5092317;28;20486;-55
2021/01/30 02:53:10;;;;;;;0.55;0.20;;;;;;;;;;5093593;28;20028;-56
2021/01/30 02:55:36;;;;;;;0.93;0.40;;;;;;;;;;5090632;28;20107;-56
2021/01/30 02:58:01;;;;;;;0.57;0.35;;;;;;;;;;5093131;28;20059;-57
2021/01/30 03:00:27;;;;;;;1.60;0.15;;;;;;;;;;5091992;28;20467;-53
2021/01/30 03:02:53;;;;;;;0.50;0.20;;;;;;;;;;5093714;28;20485;-57
2021/01/30 03:05:18;;;;;;;0.40;0.22;;;;;;;;;;5090964;28;20026;-56
2021/01/30 03:07:53;;;;;;;0.68;0.50;;;;;;;;;;5093120;28;20497;-55
2021/01/30 03:10:30;;;;;;;0.83;0.50;;;;;;;;;;5093161;28;20023;-58
2021/01/30 03:13:09;;;;;;;1.45;0.47;;;;;;;;;;5073417;28;20031;-58
2021/01/30 03:15:44;;;;;;;1.00;0.40;;;;;;;;;;5070424;28;20024;-57
2021/01/30 03:18:10;;;;;;;0.90;0.37;;;;;;;;;;5085921;28;20020;-57
2021/01/30 03:20:41;;;;;;;2.15;1.05;;;;;;;;;;5092683;28;20266;-58
2021/01/30 03:23:08;;;;;;;0.95;0.40;;;;;;;;;;5092768;28;20024;-58
2021/01/30 03:25:34;;;;;;;0.65;0.30;;;;;;;;;;5090622;28;20426;-53
2021/01/30 03:28:00;;;;;;;0.77;0.30;;;;;;;;;;5092487;28;20135;-54
2021/01/30 03:30:26;;;;;;;1.30;0.50;;;;;;;;;;5093422;28;20016;-57
2021/01/30 03:32:51;;;;;;;2.30;0.63;;;;;;;;;;5093004;28;20432;-55
2021/01/30 03:35:17;;;;;;;2.35;0.63;;;;;;;;;;5090363;28;20242;-58
2021/01/30 03:37:42;;;;;;;1.20;0.70;;;;;;;;;;5092308;28;20082;-56
2021/01/30 03:40:09;;;;;;;1.67;0.35;;;;;;;;;;5091155;28;20023;-57
2021/01/30 03:42:34;;;;;;;0.82;0.30;;;;;;;;;;5092811;28;20020;-56
2021/01/30 03:44:59;;;;;;;0.93;0.40;;;;;;;;;;5089490;28;20387;-58
2021/01/30 03:47:25;;;;;;;1.13;0.50;;;;;;;;;;5091834;28;20012;-58
2021/01/30 03:49:50;;;;;;;2.15;0.70;;;;;;;;;;5091430;28;20081;-54
2021/01/30 03:52:15;;;;;;;0.68;0.38;;;;;;;;;;5092567;28;20019;-57
2021/01/30 03:54:40;;;;;;;3.25;0.65;;;;;;;;;;5092949;28;20042;-57
2021/01/30 03:57:06;;;;;;;2.15;0.50;;;;;;;;;;5089730;28;20107;-58
2021/01/30 03:59:31;;;;;;;1.27;0.75;;;;;;;;;;5091242;28;20032;-57
2021/01/30 04:01:56;;;;;;;1.40;0.82;;;;;;;;;;5086262;28;20020;-58
2021/01/30 04:04:21;;;;;;;0.75;0.30;;;;;;;;;;5092894;28;20023;-59
2021/01/30 04:06:47;;;;;;;1.30;0.93;;;;;;;;;;5089281;28;20103;-57
2021/01/30 04:09:13;;;;;;;1.23;0.82;;;;;;;;;;5091729;28;20063;-59
2021/01/30 04:11:39;;;;;;;0.60;0.40;;;;;;;;;;5092489;28;20020;-58
2021/01/30 04:14:04;;;;;;;2.57;1.97;;;;;;;;;;5092634;28;20320;-57
2021/01/30 04:16:29;;;;;;;1.67;0.87;;;;;;;;;;5089614;28;20024;-56
2021/01/30 04:18:55;;;;;;;4.53;2.60;;;;;;;;;;5091790;28;20020;-59
2021/01/30 04:21:20;;;;;;;1.80;1.07;;;;;;;;;;5092316;28;20020;-58
2021/01/30 04:23:46;;;;;;;4.53;2.27;;;;;;;;;;5090339;28;20181;-58
2021/01/30 04:26:11;;;;;;;2.17;1.27;;;;;;;;;;5089453;28;20028;-58
2021/01/30 04:28:37;;;;;;;1.20;0.70;;;;;;;;;;5091844;28;20051;-59
2021/01/30 04:31:03;;;;;;;1.57;1.00;;;;;;;;;;5094726;28;20304;-56
2021/01/30 04:33:28;;;;;;;1.27;0.87;;;;;;;;;;5095539;28;20390;-57
2021/01/30 04:35:53;;;;;;;1.83;1.00;;;;;;;;;;5093595;28;20031;-59
2021/01/30 04:38:18;;;;;;;1.63;1.13;;;;;;;;;;5096056;28;20032;-56
2021/01/30 04:40:44;;;;;;;2.50;1.50;;;;;;;;;;5080998;28;20455;-57
2021/01/30 04:43:16;;;;;;;2.27;1.67;;;;;;;;;;5096660;28;20125;-56
2021/01/30 04:45:50;;;;;;;3.40;2.47;;;;;;;;;;5093847;28;20024;-55
2021/01/30 04:48:30;;;;;;;2.60;1.67;;;;;;;;;;5095718;28;20020;-58
2021/01/30 04:51:01;;;;;;;5.63;3.70;;;;;;;;;;5086064;28;20472;-59
2021/01/30 04:53:32;;;;;;;4.60;2.80;;;;;;;;;;5096074;28;20058;-56
2021/01/30 04:56:01;;;;;;;5.97;4.57;;;;;;;;;;5091544;28;20257;-53
2021/01/30 04:58:27;;;;;;;5.53;3.43;;;;;;;;;;5095962;28;20027;-58
2021/01/30 05:00:52;;;;;;;5.13;3.03;;;;;;;;;;5095771;28;20016;-58
2021/01/30 05:03:32;;;;;;;6.33;3.53;;;;;;;;;;5096299;28;20462;-57
2021/01/30 05:05:59;;;;;;;4.33;2.93;;;;;;;;;;5093100;28;20019;-58
2021/01/30 05:08:39;;;;;;;5.87;3.13;;;;;;;;;;5095299;28;20028;-57
2021/01/30 05:11:08;;;;;;;5.30;3.80;;;;;;;;;;5092329;28;20474;-58
2021/01/30 05:14:03;;;;;;;9.87;6.40;;;;;;;;;;5086466;28;20067;-55
2021/01/30 05:16:35;;;;;;;9.40;3.97;;;;;;;;;;5082892;28;20028;-54
2021/01/30 05:19:06;;;;;;;5.23;3.40;;;;;;;;;;5095444;28;20024;-57
2021/01/30 05:21:44;;;;;;;8.20;6.17;;;;;;;;;;5095419;28;20024;-54
2021/01/30 05:24:10;;;;;;;7.90;6.33;;;;;;;;;;5093951;28;20077;-55
2021/01/30 05:26:41;;;;;;;6.57;4.83;;;;;;;;;;5092659;28;20370;-57
2021/01/30 05:29:21;;;;;;;6.40;5.07;;;;;;;;;;5095128;28;20047;-55
2021/01/30 05:32:06;;;;;;;4.43;3.67;;;;;;;;;;5095022;28;20070;-53
2021/01/30 05:34:44;;;;;;;3.03;2.60;;;;;;;;;;5095574;28;20047;-57
2021/01/30 05:37:18;;;;;;;5.20;2.70;;;;;;;;;;5093030;28;20809;-57
2021/01/30 05:40:02;;;;;;;4.97;4.47;;;;;;;;;;5092704;28;20028;-57
2021/01/30 05:42:36;;;;;;;7.27;5.63;;;;;;;;;;5094538;28;20016;-57
2021/01/30 05:45:22;;;;;;;7.33;4.93;;;;;;;;;;5092986;28;20027;-57
2021/01/30 05:47:49;;;;;;;8.18;6.20;;;;;;;;;;5094530;28;20031;-57
2021/01/30 05:50:34;;;;;;;11.17;7.23;;;;;;;;;;5093958;28;20028;-56
2021/01/30 05:53:01;;;;;;;10.18;7.72;;;;;;;;;;5094222;28;20126;-56
2021/01/30 05:55:28;;;;;;;13.43;8.83;;;;;;;;;;5092359;28;20023;-57
2021/01/30 05:57:55;;;;;;;10.47;6.80;;;;;;;;;;5094873;28;20149;-58
2021/01/30 06:00:21;;;;;;;11.30;8.90;;;;;;;;;;5094847;28;20265;-57
2021/01/30 06:03:04;;;;;;;12.30;7.90;;;;;;;;;;5094568;28;20020;-58
2021/01/30 06:05:31;;;;;;;8.83;5.53;;;;;;;;;;5092177;28;20095;-56
2021/01/30 06:08:06;;;;;;;16.07;10.47;;;;;;;;;;5094577;28;20023;-50
2021/01/30 06:10:31;;;;;;;;;;;;;;;;;;5095073;28;20032;-57
2021/01/30 06:13:05;;;;;;;14.80;9.35;;;;;;;;;;5094504;28;19908;-56
2021/01/30 06:15:33;;;;;;;17.17;12.10;;;;;;;;;;5092112;28;20386;-54
2021/01/30 06:17:59;;;;;;;19.17;11.50;;;;;;;;;;5094405;28;20425;-57
2021/01/30 06:20:26;;;;;;;22.93;12.13;;;;;;;;;;5094158;28;20099;-57
2021/01/30 06:23:06;;;;;;;19.50;12.73;;;;;;;;;;5092884;28;20386;-55
2021/01/30 06:25:33;;;;;;;17.37;11.27;;;;;;;;;;5091550;28;20099;-54
2021/01/30 06:28:05;;;;;;;16.70;11.83;;;;;;;;;;5093842;28;20055;-56
2021/01/30 06:30:33;;;;;;;15.07;10.97;;;;;;;;;;5094300;28;20407;-56
2021/01/30 06:33:00;;;;;;;17.00;11.13;;;;;;;;;;5094481;28;20024;-54
2021/01/30 06:35:30;;;;;;;16.43;9.80;;;;;;;;;;5091522;28;20275;-56
2021/01/30 06:38:03;;;;;;;15.80;10.07;;;;;;;;;;5093840;28;20056;-57
2021/01/30 06:40:36;;;;;;;17.10;10.97;;;;;;;;;;5092370;28;20115;-55
2021/01/30 06:43:14;;;;;;;16.37;10.03;;;;;;;;;;5093811;28;20381;-53
2021/01/30 06:45:40;;;;;;;16.73;9.93;;;;;;;;;;5091205;28;20028;-53
2021/01/30 06:48:09;;;;;;;15.50;11.03;;;;;;;;;;5093833;28;20095;-56
2021/01/30 06:50:37;;;;;;;18.27;13.30;;;;;;;;;;5093811;28;20016;-56
2021/01/30 06:53:12;;;;;;;16.90;11.30;;;;;;;;;;5092612;28;20035;-55
2021/01/30 06:55:37;;;;;;;;;;;;;;;;;;5091031;28;20028;-57
2021/01/30 06:58:04;;;;;;;14.82;9.65;;;;;;;;;;5091924;28;19912;-56
2021/01/30 07:00:31;;;;;;;17.40;11.43;;;;;;;;;;5087948;28;20032;-52
2021/01/30 07:03:04;;;;;;;17.93;11.37;;;;;;;;;;5093548;28;20386;-56
2021/01/30 07:05:41;;;;;;;15.23;9.43;;;;;;;;;;5090992;28;20016;-49
2021/01/30 07:08:15;;;;;;;14.47;8.83;;;;;;;;;;5093182;28;20028;-55
2021/01/30 07:10:47;;;;;;;8.40;5.27;;;;;;;;;;5092681;28;20023;-53
2021/01/30 07:13:27;;;;;;;12.33;8.00;;;;;;;;;;5093104;28;20278;-55
2021/01/30 07:16:01;;;;;;;13.47;8.77;;;;;;;;;;5089658;28;20052;-56
2021/01/30 07:18:30;;;;;;;11.20;7.83;;;;;;;;;;5092966;28;20048;-54
2021/01/30 07:21:05;;;;;;;10.27;6.20;;;;;;;;;;5089842;28;20066;-57
2021/01/30 07:23:45;;;;;;;11.47;8.57;;;;;;;;;;5089515;28;20048;-52
2021/01/30 07:26:11;;;;;;;9.13;6.43;;;;;;;;;;5087996;28;20016;-55
2021/01/30 07:28:39;;;;;;;9.37;5.87;;;;;;;;;;5092807;28;20074;-55
2021/01/30 07:31:08;;;;;;;8.40;6.17;;;;;;;;;;5093211;28;20059;-53
2021/01/30 07:33:49;;;;;;;9.57;5.97;;;;;;;;;;5091484;28;20027;-55
2021/01/30 07:36:29;;;;;;;8.03;5.73;;;;;;;;;;5089200;28;20024;-53
2021/01/30 07:38:57;;;;;;;7.90;5.07;;;;;;;;;;5084900;28;20034;-51
2021/01/30 07:41:37;;;;;;;9.23;6.03;;;;;;;;;;5092141;28;20058;-54
2021/01/30 07:44:06;;;;;;;8.23;5.30;;;;;;;;;;5091877;28;20073;-53
2021/01/30 07:46:33;;;;;;;8.70;5.63;;;;;;;;;;5089637;28;20421;-54
2021/01/30 07:49:01;;;;;;;8.17;5.83;;;;;;;;;;5092331;28;20107;-51
2021/01/30 07:51:34;;;;;;;6.27;4.87;;;;;;;;;;5093171;28;20051;-54
2021/01/30 07:54:01;;;;;;;8.57;4.70;;;;;;;;;;5092463;28;20497;-55
2021/01/30 07:56:31;;;;;;;6.40;4.13;;;;;;;;;;5089161;28;20383;-55
2021/01/30 07:59:05;;;;;;;6.40;4.60;;;;;;;;;;5092087;28;20493;-50
2021/01/30 08:01:47;;;;;;;7.40;5.23;;;;;;;;;;5089547;28;20016;-53
2021/01/30 08:04:21;;;;;;;6.27;5.40;;;;;;;;;;5089855;28;20056;-57
2021/01/30 08:07:08;;;;;;;6.73;5.37;;;;;;;;;;5086543;28;20024;-56
2021/01/30 08:09:39;;;;;;;6.37;4.70;;;;;;;;;;5087883;28;20024;-55
2021/01/30 08:12:14;;;;;;;6.00;5.00;;;;;;;;;;5092507;28;20020;-55
2021/01/30 08:14:52;;;;;;;5.20;4.00;;;;;;;;;;5088865;28;20035;-54
2021/01/30 08:17:23;;;;;;;7.47;4.83;;;;;;;;;;5079706;28;20103;-52
2021/01/30 08:19:55;;;;;;;6.60;4.30;;;;;;;;;;5081636;28;20020;-57
2021/01/30 08:22:24;;;;;;;6.70;4.27;;;;;;;;;;5084497;28;20892;-53
2021/01/30 08:25:01;;;;;;;6.90;4.23;;;;;;;;;;5077831;28;20032;-56
2021/01/30 08:27:35;;;;;;;5.33;3.80;;;;;;;;;;5074497;28;20471;-57
2021/01/30 08:30:04;;;;;;;7.57;4.20;;;;;;;;;;5087899;28;20111;-56
2021/01/30 08:32:30;;;;;;;7.10;4.93;;;;;;;;;;5091146;28;20016;-56
2021/01/30 08:35:14;;;;;;;8.60;5.73;;;;;;;;;;5090183;28;20024;-55
2021/01/30 08:37:40;;;;;;;11.93;7.10;;;;;;;;;;5088477;28;20054;-56
2021/01/30 08:40:10;;;;;;;9.10;6.73;;;;;;;;;;5089758;28;20028;-52
2021/01/30 08:42:38;;;;;;;10.50;6.40;;;;;;;;;;5090201;28;20471;-56
2021/01/30 08:45:10;;;;;;;10.73;7.00;;;;;;;;;;5086513;28;20430;-56
2021/01/30 08:47:55;;;;;;;8.27;6.27;;;;;;;;;;5081325;28;20024;-56
2021/01/30 08:50:26;;;;;;;8.50;5.30;;;;;;;;;;5082971;28;20040;-56
2021/01/30 08:53:10;;;;;;;11.03;7.50;;;;;;;;;;5082177;28;20413;-54
2021/01/30 08:55:47;;;;;;;11.67;8.33;;;;;;;;;;5089210;28;20065;-57
2021/01/30 08:58:31;;;;;;;12.70;8.10;;;;;;;;;;5092249;28;20044;-57
2021/01/30 09:00:58;;;;;;;9.27;6.80;;;;;;;;;;5091278;28;20057;-55
2021/01/30 09:03:55;;;;;;;10.50;7.63;;;;;;;;;;5092299;28;20466;-54
2021/01/30 09:06:39;;;;;;;11.27;8.33;;;;;;;;;;5044367;28;20056;-57
2021/01/30 09:09:09;;;;;;;10.47;7.57;;;;;;;;;;5091418;28;20024;-57
2021/01/30 09:11:59;;;;;;;13.87;9.50;;;;;;;;;;5091773;28;20016;-58
2021/01/30 09:14:27;;;;;;;14.07;8.60;;;;;;;;;;5081692;28;20039;-57
2021/01/30 09:17:06;;;;;;;12.23;8.60;;;;;;;;;;5089633;28;20024;-56
2021/01/30 09:19:35;;;;;;;10.93;7.67;;;;;;;;;;5095271;28;20024;-57
2021/01/30 09:22:09;;;;;;;12.20;8.20;;;;;;;;;;5094940;28;20031;-52
2021/01/30 09:24:48;;;;;;;9.87;6.43;;;;;;;;;;5095381;28;20135;-54
2021/01/30 09:27:17;;;;;;;9.27;5.23;;;;;;;;;;5093478;28;20091;-56
2021/01/30 09:29:45;;;;;;;10.60;7.43;;;;;;;;;;5095196;28;20487;-56
2021/01/30 09:32:14;;;;;;;10.23;6.73;;;;;;;;;;5095674;28;20016;-56
2021/01/30 09:34:49;;;;;;;13.00;9.10;;;;;;;;;;5094442;28;20013;-55
2021/01/30 09:37:28;;;;;;;12.13;8.43;;;;;;;;;;5093427;28;20023;-57
2021/01/30 09:39:55;;;;;;;11.23;7.93;;;;;;;;;;5092486;28;20069;-56
2021/01/30 09:42:21;;;;;;;13.10;7.97;;;;;;;;;;5095563;28;20020;-54
2021/01/30 09:44:58;;;;;;;11.87;7.83;;;;;;;;;;5093540;28;20520;-55
2021/01/30 09:47:24;;;;;;;8.77;5.33;;;;;;;;;;5094040;28;20028;-57
2021/01/30 09:49:55;;;;;;;11.90;7.93;;;;;;;;;;5092465;28;20019;-57
2021/01/30 09:52:21;;;;;;;10.87;8.13;;;;;;;;;;5074872;28;20437;-57
2021/01/30 09:54:52;;;;;;;9.57;5.27;;;;;;;;;;5074309;28;20100;-56
2021/01/30 09:57:22;;;;;;;10.10;7.40;;;;;;;;;;5073238;28;20048;-57
2021/01/30 09:59:54;;;;;;;9.03;7.00;;;;;;;;;;5085763;28;20459;-58
2021/01/30 10:02:23;;;;;;;12.37;8.50;;;;;;;;;;5074965;28;20020;-54
2021/01/30 10:05:00;;;;;;;10.97;7.30;;;;;;;;;;5081852;28;20089;-58
2021/01/30 10:07:26;;;;;;;10.67;7.67;;;;;;;;;;5094301;28;20070;-55
2021/01/30 10:09:52;;;;;;;12.93;8.63;;;;;;;;;;5094607;28;20036;-57
2021/01/30 10:12:19;;;;;;;12.33;7.23;;;;;;;;;;5094860;28;20032;-56
2021/01/30 10:14:46;;;;;;;12.60;8.13;;;;;;;;;;5094317;28;20047;-55
2021/01/30 10:17:16;;;;;;;10.67;8.10;;;;;;;;;;5092288;28;20463;-56
2021/01/30 10:19:41;;;;;;;9.53;6.13;;;;;;;;;;5093532;28;20066;-58
2021/01/30 10:22:17;;;;;;;10.73;6.73;;;;;;;;;;5079931;28;20138;-56
2021/01/30 10:24:43;;;;;;;;;;;;;;;;;;5094244;28;20069;-56
2021/01/30 10:27:20;;;;;;;10.27;7.07;;;;;;;;;;5091736;28;19943;-57
2021/01/30 10:29:45;;;;;;;10.37;7.80;;;;;;;;;;5093745;28;20487;-53
2021/01/30 10:32:33;;;;;;;11.40;5.57;;;;;;;;;;5094673;28;20024;-58
2021/01/30 10:35:04;;;;;;;14.13;7.47;;;;;;;;;;5092176;28;20032;-58
2021/01/30 10:37:44;;;;;;;9.73;6.83;;;;;;;;;;5093940;28;20376;-56
2021/01/30 10:40:17;;;;;;;8.17;6.87;;;;;;;;;;5085477;28;20016;-56
2021/01/30 10:42:43;;;;;;;12.17;7.90;;;;;;;;;;5074326;28;20387;-57
2021/01/30 10:45:11;;;;;;;11.63;7.80;;;;;;;;;;5088943;28;20356;-57
2021/01/30 10:47:36;;;;;;;10.07;7.67;;;;;;;;;;5093257;28;20028;-52
2021/01/30 10:50:06;;;;;;;11.87;7.77;;;;;;;;;;5092425;28;20023;-56
2021/01/30 10:52:31;;;;;;;11.17;8.13;;;;;;;;;;5079097;28;20074;-55
2021/01/30 10:55:16;;;;;;;12.50;8.00;;;;;;;;;;5084202;28;20535;-54
2021/01/30 10:57:43;;;;;;;10.45;6.65;;;;;;;;;;5084076;28;20028;-56
2021/01/30 11:00:21;;;;;;;11.90;7.97;;;;;;;;;;5093435;28;20412;-58
2021/01/30 11:02:47;;;;;;;11.00;7.60;;;;;;;;;;5093253;28;20023;-54
2021/01/30 11:05:18;;;;;;;10.37;7.10;;;;;;;;;;5090550;28;20017;-54
2021/01/30 11:07:45;;;;;;;13.73;8.13;;;;;;;;;;5092983;28;20016;-56
2021/01/30 11:10:22;;;;;;;13.00;9.27;;;;;;;;;;5093019;28;20020;-52
2021/01/30 11:12:47;;;;;;;11.00;8.40;;;;;;;;;;5073280;28;20017;-56
2021/01/30 11:15:23;;;;;;;9.20;7.40;;;;;;;;;;5090152;28;20024;-55
2021/01/30 11:17:49;;;;;;;8.77;6.70;;;;;;;;;;5092927;28;20016;-55
2021/01/30 11:20:33;;;;;;;10.70;7.33;;;;;;;;;;5091053;28;20490;-52
2021/01/30 11:22:58;;;;;;;9.07;6.90;;;;;;;;;;5092489;28;20417;-56
2021/01/30 11:25:30;;;;;;;10.73;7.00;;;;;;;;;;5090205;28;20347;-54
2021/01/30 11:27:55;;;;;;;9.10;6.90;;;;;;;;;;5092190;28;20135;-55
2021/01/30 11:30:25;;;;;;;8.80;7.43;;;;;;;;;;5092584;28;20161;-56
2021/01/30 11:32:53;;;;;;;10.03;7.27;;;;;;;;;;5093233;28;20097;-51
2021/01/30 11:35:24;;;;;;;8.93;6.03;;;;;;;;;;5090279;28;20204;-53
2021/01/30 11:37:50;;;;;;;7.80;6.00;;;;;;;;;;5092296;28;20463;-52
2021/01/30 11:40:15;;;;;;;8.97;5.77;;;;;;;;;;5091609;28;20050;-56
2021/01/30 11:42:40;;;;;;;8.87;6.40;;;;;;;;;;5093175;28;20394;-54
2021/01/30 11:45:07;;;;;;;8.77;6.50;;;;;;;;;;5090197;28;20315;-51
2021/01/30 11:47:32;;;;;;;9.50;6.93;;;;;;;;;;5093108;28;20042;-57
2021/01/30 11:49:57;;;;;;;10.17;7.57;;;;;;;;;;5092111;28;20442;-54
2021/01/30 11:52:23;;;;;;;14.10;8.90;;;;;;;;;;5092927;28;20012;-53
2021/01/30 11:54:49;;;;;;;12.03;8.17;;;;;;;;;;5090735;28;20016;-54
2021/01/30 11:57:14;;;;;;;15.07;9.63;;;;;;;;;;5089104;28;20516;-55
2021/01/30 11:59:39;;;;;;;12.73;8.80;;;;;;;;;;5092406;28;20100;-55
2021/01/30 12:02:07;;;;;;;13.63;8.87;;;;;;;;;;5091384;28;20114;-53
2021/01/30 12:04:33;;;;;;;15.00;10.03;;;;;;;;;;5092729;28;20019;-55
2021/01/30 12:06:58;;;;;;;12.93;8.70;;;;;;;;;;5089412;28;20399;-58
2021/01/30 12:09:23;;;;;;;15.37;9.40;;;;;;;;;;5092205;28;20024;-54
2021/01/30 12:11:48;;;;;;;16.10;9.73;;;;;;;;;;5092442;28;20033;-57
2021/01/30 12:14:13;;;;;;;14.43;8.90;;;;;;;;;;5092072;28;20032;-52
2021/01/30 12:16:39;;;;;;;12.10;9.07;;;;;;;;;;5089912;28;20027;-54
2021/01/30 12:19:04;;;;;;;11.30;8.13;;;;;;;;;;5091941;28;20044;-54
2021/01/30 12:21:29;;;;;;;11.73;8.20;;;;;;;;;;5092516;28;20017;-53
2021/01/30 12:23:54;;;;;;;11.50;8.10;;;;;;;;;;5089848;28;20016;-53
2021/01/30 12:26:22;;;;;;;13.77;8.53;;;;;;;;;;5088214;28;20103;-57
2021/01/30 12:28:48;;;;;;;13.67;9.30;;;;;;;;;;5085491;28;20036;-56
2021/01/30 12:31:13;;;;;;;11.83;7.90;;;;;;;;;;5092138;28;20094;-54
2021/01/30 12:33:38;;;;;;;12.07;8.63;;;;;;;;;;5092108;28;20027;-57
2021/01/30 12:36:04;;;;;;;12.97;8.20;;;;;;;;;;5088921;28;20040;-57
2021/01/30 12:38:32;;;;;;;13.20;8.63;;;;;;;;;;5091644;28;20432;-57
2021/01/30 12:40:58;;;;;;;12.63;8.03;;;;;;;;;;5092233;28;20035;-57
2021/01/30 12:43:23;;;;;;;12.13;8.13;;;;;;;;;;5092420;28;20095;-54
2021/01/30 12:45:48;;;;;;;10.60;7.83;;;;;;;;;;5088174;28;20020;-55
2021/01/30 12:48:15;;;;;;;9.90;6.90;;;;;;;;;;5091653;28;20027;-57
2021/01/30 12:50:40;;;;;;;12.40;8.17;;;;;;;;;;5087520;28;20418;-56
2021/01/30 12:53:09;;;;;;;10.33;7.60;;;;;;;;;;5094422;28;20023;-55
2021/01/30 12:55:35;;;;;;;10.63;7.60;;;;;;;;;;5093085;28;20040;-53
2021/01/30 12:58:09;;;;;;;12.50;8.90;;;;;;;;;;5095887;28;20020;-56
2021/01/30 13:00:34;;;;;;;11.50;8.10;;;;;;;;;;5081670;28;20453;-55
2021/01/30 13:02:59;;;;;;;13.97;8.37;;;;;;;;;;5094117;28;20028;-58
2021/01/30 13:05:24;;;;;;;12.30;9.03;;;;;;;;;;5092967;28;20016;-56
2021/01/30 13:07:50;;;;;;;13.73;10.10;;;;;;;;;;5095068;28;20482;-56
2021/01/30 13:10:18;;;;;;;15.00;9.50;;;;;;;;;;5095538;28;20035;-54
2021/01/30 13:12:44;;;;;;;12.73;8.93;;;;;;;;;;5095773;28;20079;-50
2021/01/30 13:15:09;;;;;;;12.17;8.30;;;;;;;;;;5093280;28;20388;-51
2021/01/30 13:17:35;;;;;;;11.83;8.67;;;;;;;;;;5094521;28;20024;-56
2021/01/30 13:20:00;;;;;;;16.07;10.97;;;;;;;;;;5094752;28;20108;-58
2021/01/30 13:22:26;;;;;;;12.83;9.07;;;;;;;;;;5095477;28;20439;-55
2021/01/30 13:24:51;;;;;;;14.93;10.03;;;;;;;;;;5093300;28;20471;-53
2021/01/30 13:27:17;;;;;;;14.57;10.07;;;;;;;;;;5092625;28;20458;-57
2021/01/30 13:29:42;;;;;;;16.07;10.60;;;;;;;;;;5094183;28;20044;-56
2021/01/30 13:32:07;;;;;;;15.70;9.70;;;;;;;;;;5094650;28;20031;-58
2021/01/30 13:34:33;;;;;;;13.93;9.50;;;;;;;;;;5093734;28;20620;-55
2021/01/30 13:36:59;;;;;;;13.17;9.43;;;;;;;;;;5091948;28;20486;-58
2021/01/30 13:39:24;;;;;;;15.57;10.13;;;;;;;;;;5092988;28;20040;-56
2021/01/30 13:41:49;;;;;;;16.77;9.90;;;;;;;;;;5093346;28;20093;-55
2021/01/30 13:44:15;;;;;;;14.67;8.93;;;;;;;;;;5094333;28;20485;-57
2021/01/30 13:46:40;;;;;;;14.10;9.10;;;;;;;;;;5091082;28;20047;-55
2021/01/30 13:49:06;;;;;;;12.80;8.77;;;;;;;;;;5093133;28;20028;-56
2021/01/30 13:51:31;;;;;;;14.23;8.70;;;;;;;;;;5088290;28;20110;-54
2021/01/30 13:53:58;;;;;;;15.03;9.93;;;;;;;;;;5093473;28;20082;-51
2021/01/30 13:56:23;;;;;;;14.23;9.00;;;;;;;;;;5090435;28;20028;-55
2021/01/30 13:58:48;;;;;;;15.93;10.53;;;;;;;;;;5094867;28;20024;-57
2021/01/30 14:01:13;;;;;;;15.63;10.47;;;;;;;;;;5093193;28;20028;-57
2021/01/30 14:03:39;;;;;;;15.93;10.63;;;;;;;;;;5094194;28;20020;-54
2021/01/30 14:06:04;;;;;;;17.93;10.70;;;;;;;;;;5090498;28;20035;-51
2021/01/30 14:08:29;;;;;;;17.40;10.37;;;;;;;;;;5093598;28;20119;-54
2021/01/30 14:10:55;;;;;;;14.30;9.67;;;;;;;;;;5093586;28;20439;-54
2021/01/30 14:13:20;;;;;;;16.60;10.43;;;;;;;;;;5077165;28;20024;-54
2021/01/30 14:15:45;;;;;;;19.50;11.53;;;;;;;;;;5081393;28;20024;-51
2021/01/30 14:18:12;;;;;;;16.50;10.50;;;;;;;;;;5093052;28;20016;-51
2021/01/30 14:20:37;;;;;;;15.00;9.70;;;;;;;;;;5093337;28;20016;-57
2021/01/30 14:23:03;;;;;;;17.47;10.80;;;;;;;;;;5093892;28;20510;-56
2021/01/30 14:25:28;;;;;;;17.30;11.13;;;;;;;;;;5090573;28;20016;-55
2021/01/30 14:27:54;;;;;;;15.73;10.20;;;;;;;;;;5090806;28;20036;-56
2021/01/30 14:30:20;;;;;;;18.97;10.73;;;;;;;;;;5094262;28;20363;-54
2021/01/30 14:32:45;;;;;;;16.73;11.40;;;;;;;;;;5094244;28;20027;-52
2021/01/30 14:35:11;;;;;;;15.13;10.23;;;;;;;;;;5091343;28;20020;-57
2021/01/30 14:37:37;;;;;;;16.93;10.87;;;;;;;;;;5094138;28;20020;-57
2021/01/30 14:40:03;;;;;;;18.33;11.90;;;;;;;;;;5086141;28;20027;-57
2021/01/30 14:42:28;;;;;;;18.13;12.33;;;;;;;;;;5094124;28;20027;-55
2021/01/30 14:44:53;;;;;;;16.93;11.57;;;;;;;;;;5092871;28;20056;-52
2021/01/30 14:47:21;;;;;;;18.77;11.83;;;;;;;;;;5092255;28;20023;-57
2021/01/30 14:49:46;;;;;;;19.63;11.73;;;;;;;;;;5093299;28;20019;-56